sensor_id;sensor_type;location;lat;lon;timestamp;pressure;altitude;pressure_sealevel;temperature;humidity
24336;BME280;33098;52.400;16.880;2023-05-14T00:00:30;101302.83;;;13.73;51.54
24336;BME280;33098;52.400;16.880;2023-05-14T00:03:19;101301.58;;;13.76;51.66
24336;BME280;33098;52.400;16.880;2023-05-14T00:05:47;101300.07;;;13.77;51.67
24336;BME280;33098;52.400;16.880;2023-05-14T00:08:16;101302.98;;;13.78;51.67
24336;BME280;33098;52.400;16.880;2023-05-14T00:10:46;101302.86;;;13.66;51.80
24336;BME280;33098;52.400;16.880;2023-05-14T00:13:14;101305.66;;;13.55;51.85
24336;BME280;33098;52.400;16.880;2023-05-14T00:15:41;101306.02;;;13.51;52.12
24336;BME280;33098;52.400;16.880;2023-05-14T00:18:10;101308.12;;;13.49;52.22
24336;BME280;33098;52.400;16.880;2023-05-14T00:20:37;101302.76;;;13.49;52.36
24336;BME280;33098;52.400;16.880;2023-05-14T00:23:04;101302.38;;;13.45;52.38
24336;BME280;33098;52.400;16.880;2023-05-14T00:25:36;101301.40;;;13.39;52.55
24336;BME280;33098;52.400;16.880;2023-05-14T00:28:04;101301.75;;;13.34;52.74
24336;BME280;33098;52.400;16.880;2023-05-14T00:30:32;101301.60;;;13.29;52.82
24336;BME280;33098;52.400;16.880;2023-05-14T00:33:02;101301.67;;;13.28;52.94
24336;BME280;33098;52.400;16.880;2023-05-14T00:35:30;101304.87;;;13.23;52.91
24336;BME280;33098;52.400;16.880;2023-05-14T00:37:57;101302.78;;;13.20;53.11
24336;BME280;33098;52.400;16.880;2023-05-14T00:40:25;101301.58;;;13.19;53.19
24336;BME280;33098;52.400;16.880;2023-05-14T00:42:54;101303.19;;;13.17;53.30
24336;BME280;33098;52.400;16.880;2023-05-14T00:45:21;101301.34;;;13.16;53.38
24336;BME280;33098;52.400;16.880;2023-05-14T00:47:48;101296.97;;;13.12;53.49
24336;BME280;33098;52.400;16.880;2023-05-14T00:50:16;101298.41;;;13.10;53.59
24336;BME280;33098;52.400;16.880;2023-05-14T00:52:45;101303.92;;;13.05;53.59
24336;BME280;33098;52.400;16.880;2023-05-14T00:55:14;101300.33;;;13.03;53.71
24336;BME280;33098;52.400;16.880;2023-05-14T00:57:42;101303.28;;;13.02;53.79
24336;BME280;33098;52.400;16.880;2023-05-14T01:00:15;101302.70;;;12.93;53.90
24336;BME280;33098;52.400;16.880;2023-05-14T01:02:42;101304.23;;;12.84;54.08
24336;BME280;33098;52.400;16.880;2023-05-14T01:05:09;101304.42;;;12.86;54.23
24336;BME280;33098;52.400;16.880;2023-05-14T01:08:45;101297.23;;;12.87;54.32
24336;BME280;33098;52.400;16.880;2023-05-14T01:11:02;101299.86;;;12.87;54.42
24336;BME280;33098;52.400;16.880;2023-05-14T01:13:41;101295.43;;;12.85;54.50
24336;BME280;33098;52.400;16.880;2023-05-14T01:16:12;101295.33;;;12.89;54.56
24336;BME280;33098;52.400;16.880;2023-05-14T01:18:42;101296.52;;;12.87;54.53
24336;BME280;33098;52.400;16.880;2023-05-14T01:21:39;101292.54;;;12.83;54.67
24336;BME280;33098;52.400;16.880;2023-05-14T01:24:08;101291.29;;;12.88;54.88
24336;BME280;33098;52.400;16.880;2023-05-14T01:26:35;101283.73;;;12.89;54.73
24336;BME280;33098;52.400;16.880;2023-05-14T01:29:09;101282.89;;;12.83;54.73
24336;BME280;33098;52.400;16.880;2023-05-14T01:31:39;101280.27;;;12.73;54.71
24336;BME280;33098;52.400;16.880;2023-05-14T01:34:10;101281.07;;;12.67;54.96
24336;BME280;33098;52.400;16.880;2023-05-14T01:36:39;101279.05;;;12.63;55.16
24336;BME280;33098;52.400;16.880;2023-05-14T01:39:13;101275.60;;;12.57;55.21
24336;BME280;33098;52.400;16.880;2023-05-14T01:41:41;101269.59;;;12.54;55.34
24336;BME280;33098;52.400;16.880;2023-05-14T01:44:10;101270.13;;;12.56;55.49
24336;BME280;33098;52.400;16.880;2023-05-14T01:46:37;101267.19;;;12.53;55.66
24336;BME280;33098;52.400;16.880;2023-05-14T01:49:04;101267.17;;;12.48;55.61
24336;BME280;33098;52.400;16.880;2023-05-14T01:51:31;101264.37;;;12.50;55.80
24336;BME280;33098;52.400;16.880;2023-05-14T01:53:58;101259.30;;;12.53;55.79
24336;BME280;33098;52.400;16.880;2023-05-14T01:56:24;101256.55;;;12.50;55.84
24336;BME280;33098;52.400;16.880;2023-05-14T01:58:51;101256.38;;;12.49;55.93
24336;BME280;33098;52.400;16.880;2023-05-14T02:01:18;101253.15;;;12.45;55.90
24336;BME280;33098;52.400;16.880;2023-05-14T02:03:45;101249.67;;;12.37;56.04
24336;BME280;33098;52.400;16.880;2023-05-14T02:06:12;101253.09;;;12.34;56.21
24336;BME280;33098;52.400;16.880;2023-05-14T02:08:38;101256.38;;;12.28;56.31
24336;BME280;33098;52.400;16.880;2023-05-14T02:11:07;101253.45;;;12.21;56.39
24336;BME280;33098;52.400;16.880;2023-05-14T02:13:34;101250.23;;;12.11;56.46
24336;BME280;33098;52.400;16.880;2023-05-14T02:16:04;101252.02;;;12.02;56.53
24336;BME280;33098;52.400;16.880;2023-05-14T02:18:34;101245.27;;;11.99;56.86
24336;BME280;33098;52.400;16.880;2023-05-14T02:21:01;101242.67;;;12.01;56.87
24336;BME280;33098;52.400;16.880;2023-05-14T02:23:27;101244.41;;;12.06;56.95
24336;BME280;33098;52.400;16.880;2023-05-14T02:25:57;101245.33;;;12.10;56.98
24336;BME280;33098;52.400;16.880;2023-05-14T02:28:24;101242.65;;;12.08;56.96
24336;BME280;33098;52.400;16.880;2023-05-14T02:30:50;101242.02;;;12.07;56.90
24336;BME280;33098;52.400;16.880;2023-05-14T02:33:17;101242.27;;;12.04;56.94
24336;BME280;33098;52.400;16.880;2023-05-14T02:35:43;101239.94;;;12.02;57.06
24336;BME280;33098;52.400;16.880;2023-05-14T02:38:10;101239.11;;;12.01;57.03
24336;BME280;33098;52.400;16.880;2023-05-14T02:40:37;101237.65;;;11.93;57.05
24336;BME280;33098;52.400;16.880;2023-05-14T02:43:03;101235.38;;;11.87;57.24
24336;BME280;33098;52.400;16.880;2023-05-14T02:45:31;101236.08;;;11.80;57.39
24336;BME280;33098;52.400;16.880;2023-05-14T02:47:58;101240.11;;;11.83;57.44
24336;BME280;33098;52.400;16.880;2023-05-14T02:50:24;101233.61;;;11.77;57.58
24336;BME280;33098;52.400;16.880;2023-05-14T02:52:51;101231.95;;;11.76;57.68
24336;BME280;33098;52.400;16.880;2023-05-14T02:55:20;101235.67;;;11.76;57.82
24336;BME280;33098;52.400;16.880;2023-05-14T02:57:47;101234.79;;;11.71;57.84
24336;BME280;33098;52.400;16.880;2023-05-14T03:00:14;101234.55;;;11.67;58.09
24336;BME280;33098;52.400;16.880;2023-05-14T03:02:40;101237.20;;;11.65;58.05
24336;BME280;33098;52.400;16.880;2023-05-14T03:05:08;101232.16;;;11.63;58.22
24336;BME280;33098;52.400;16.880;2023-05-14T03:07:38;101233.83;;;11.62;58.17
24336;BME280;33098;52.400;16.880;2023-05-14T03:10:16;101237.50;;;11.63;58.48
24336;BME280;33098;52.400;16.880;2023-05-14T03:12:46;101239.11;;;11.62;58.44
24336;BME280;33098;52.400;16.880;2023-05-14T03:15:18;101241.46;;;11.67;58.47
24336;BME280;33098;52.400;16.880;2023-05-14T03:17:45;101240.41;;;11.74;58.45
24336;BME280;33098;52.400;16.880;2023-05-14T03:20:12;101244.14;;;11.77;58.37
24336;BME280;33098;52.400;16.880;2023-05-14T03:22:41;101246.59;;;11.80;58.42
24336;BME280;33098;52.400;16.880;2023-05-14T03:25:11;101245.85;;;11.85;58.48
24336;BME280;33098;52.400;16.880;2023-05-14T03:27:37;101246.77;;;11.89;58.38
24336;BME280;33098;52.400;16.880;2023-05-14T03:30:05;101247.73;;;11.97;58.31
24336;BME280;33098;52.400;16.880;2023-05-14T03:32:32;101248.95;;;12.07;58.32
24336;BME280;33098;52.400;16.880;2023-05-14T03:34:59;101247.04;;;12.14;58.11
24336;BME280;33098;52.400;16.880;2023-05-14T03:37:28;101241.54;;;12.24;58.05
24336;BME280;33098;52.400;16.880;2023-05-14T03:39:55;101241.13;;;12.34;57.89
24336;BME280;33098;52.400;16.880;2023-05-14T03:42:25;101239.33;;;12.39;57.77
24336;BME280;33098;52.400;16.880;2023-05-14T03:44:52;101248.02;;;12.42;57.79
24336;BME280;33098;52.400;16.880;2023-05-14T03:47:19;101242.98;;;12.50;57.75
24336;BME280;33098;52.400;16.880;2023-05-14T03:49:48;101249.15;;;12.61;57.70
24336;BME280;33098;52.400;16.880;2023-05-14T03:52:23;101243.45;;;12.75;57.68
24336;BME280;33098;52.400;16.880;2023-05-14T03:54:55;101238.05;;;12.87;57.41
24336;BME280;33098;52.400;16.880;2023-05-14T03:57:25;101236.88;;;13.01;57.41
24336;BME280;33098;52.400;16.880;2023-05-14T03:59:56;101234.76;;;13.12;57.32
24336;BME280;33098;52.400;16.880;2023-05-14T04:02:28;101234.75;;;13.24;57.16
24336;BME280;33098;52.400;16.880;2023-05-14T04:04:55;101236.87;;;13.39;56.92
24336;BME280;33098;52.400;16.880;2023-05-14T04:07:24;101237.11;;;13.51;56.73
24336;BME280;33098;52.400;16.880;2023-05-14T04:09:53;101237.17;;;13.65;56.41
24336;BME280;33098;52.400;16.880;2023-05-14T04:12:21;101234.73;;;13.73;56.32
24336;BME280;33098;52.400;16.880;2023-05-14T04:14:48;101234.40;;;13.75;55.91
24336;BME280;33098;52.400;16.880;2023-05-14T04:17:15;101232.68;;;13.76;55.85
24336;BME280;33098;52.400;16.880;2023-05-14T04:19:42;101232.91;;;13.84;55.96
24336;BME280;33098;52.400;16.880;2023-05-14T04:22:09;101231.98;;;13.89;55.68
24336;BME280;33098;52.400;16.880;2023-05-14T04:24:36;101232.32;;;13.89;55.49
24336;BME280;33098;52.400;16.880;2023-05-14T04:27:05;101233.91;;;13.87;55.34
24336;BME280;33098;52.400;16.880;2023-05-14T04:29:32;101235.52;;;13.87;55.42
24336;BME280;33098;52.400;16.880;2023-05-14T04:31:59;101230.98;;;13.93;55.49
24336;BME280;33098;52.400;16.880;2023-05-14T04:34:26;101231.16;;;14.00;55.32
24336;BME280;33098;52.400;16.880;2023-05-14T04:36:53;101232.83;;;14.06;55.20
24336;BME280;33098;52.400;16.880;2023-05-14T04:39:19;101233.02;;;14.14;55.14
24336;BME280;33098;52.400;16.880;2023-05-14T04:41:46;101230.49;;;14.21;54.95
24336;BME280;33098;52.400;16.880;2023-05-14T04:44:16;101230.67;;;14.26;54.85
24336;BME280;33098;52.400;16.880;2023-05-14T04:46:46;101226.58;;;14.32;54.75
24336;BME280;33098;52.400;16.880;2023-05-14T04:49:13;101226.35;;;14.41;54.62
24336;BME280;33098;52.400;16.880;2023-05-14T04:51:47;101228.30;;;14.53;54.50
24336;BME280;33098;52.400;16.880;2023-05-14T04:54:17;101225.87;;;14.65;54.18
24336;BME280;33098;52.400;16.880;2023-05-14T04:56:44;101227.40;;;14.79;54.03
24336;BME280;33098;52.400;16.880;2023-05-14T04:59:12;101223.10;;;14.92;53.79
24336;BME280;33098;52.400;16.880;2023-05-14T05:01:44;101226.20;;;15.00;53.58
24336;BME280;33098;52.400;16.880;2023-05-14T05:04:11;101224.60;;;15.04;53.38
24336;BME280;33098;52.400;16.880;2023-05-14T05:06:38;101224.47;;;15.12;53.33
24336;BME280;33098;52.400;16.880;2023-05-14T05:09:07;101227.11;;;15.25;53.34
24336;BME280;33098;52.400;16.880;2023-05-14T05:11:37;101224.51;;;15.38;53.17
24336;BME280;33098;52.400;16.880;2023-05-14T05:14:04;101222.80;;;15.47;53.01
24336;BME280;33098;52.400;16.880;2023-05-14T05:16:35;101220.60;;;15.52;52.69
24336;BME280;33098;52.400;16.880;2023-05-14T05:19:10;101222.03;;;15.59;52.59
24336;BME280;33098;52.400;16.880;2023-05-14T05:21:37;101221.82;;;15.61;52.40
24336;BME280;33098;52.400;16.880;2023-05-14T05:24:11;101222.05;;;15.67;52.29
24336;BME280;33098;52.400;16.880;2023-05-14T05:26:38;101222.80;;;15.68;52.04
24336;BME280;33098;52.400;16.880;2023-05-14T05:29:11;101220.95;;;15.77;52.09
24336;BME280;33098;52.400;16.880;2023-05-14T05:31:38;101222.60;;;15.87;51.94
24336;BME280;33098;52.400;16.880;2023-05-14T05:34:04;101219.65;;;15.96;51.89
24336;BME280;33098;52.400;16.880;2023-05-14T05:36:31;101217.31;;;15.98;51.62
24336;BME280;33098;52.400;16.880;2023-05-14T05:39:00;101213.41;;;15.98;51.51
24336;BME280;33098;52.400;16.880;2023-05-14T05:41:30;101210.63;;;16.03;51.63
24336;BME280;33098;52.400;16.880;2023-05-14T05:44:04;101209.34;;;16.08;51.55
24336;BME280;33098;52.400;16.880;2023-05-14T05:46:30;101208.90;;;16.12;51.54
24336;BME280;33098;52.400;16.880;2023-05-14T05:48:57;101204.41;;;16.23;51.59
24336;BME280;33098;52.400;16.880;2023-05-14T05:51:32;101204.98;;;16.32;51.54
24336;BME280;33098;52.400;16.880;2023-05-14T05:53:59;101209.36;;;16.41;51.34
24336;BME280;33098;52.400;16.880;2023-05-14T05:56:25;101206.52;;;16.49;51.25
24336;BME280;33098;52.400;16.880;2023-05-14T05:58:55;101209.11;;;16.56;51.20
24336;BME280;33098;52.400;16.880;2023-05-14T06:01:24;101208.38;;;16.62;50.96
24336;BME280;33098;52.400;16.880;2023-05-14T06:03:53;101209.22;;;16.68;50.98
24336;BME280;33098;52.400;16.880;2023-05-14T06:06:20;101207.92;;;16.78;50.88
24336;BME280;33098;52.400;16.880;2023-05-14T06:08:59;101207.80;;;16.90;50.59
24336;BME280;33098;52.400;16.880;2023-05-14T06:11:27;101201.95;;;16.93;50.44
24336;BME280;33098;52.400;16.880;2023-05-14T06:13:54;101200.50;;;16.97;50.38
24336;BME280;33098;52.400;16.880;2023-05-14T06:16:21;101198.23;;;17.02;50.13
24336;BME280;33098;52.400;16.880;2023-05-14T06:18:52;101199.48;;;17.10;50.05
24336;BME280;33098;52.400;16.880;2023-05-14T06:21:35;101196.20;;;17.20;50.13
24336;BME280;33098;52.400;16.880;2023-05-14T06:24:05;101196.36;;;17.31;49.93
24336;BME280;33098;52.400;16.880;2023-05-14T06:26:37;101190.89;;;17.42;49.79
24336;BME280;33098;52.400;16.880;2023-05-14T06:29:07;101194.45;;;17.46;49.62
24336;BME280;33098;52.400;16.880;2023-05-14T06:31:33;101195.69;;;17.48;49.38
24336;BME280;33098;52.400;16.880;2023-05-14T06:34:09;101198.36;;;17.50;49.31
24336;BME280;33098;52.400;16.880;2023-05-14T06:36:36;101199.91;;;17.47;48.92
24336;BME280;33098;52.400;16.880;2023-05-14T06:39:03;101202.20;;;17.42;48.88
24336;BME280;33098;52.400;16.880;2023-05-14T06:41:30;101206.86;;;17.43;48.91
24336;BME280;33098;52.400;16.880;2023-05-14T06:43:56;101204.92;;;17.47;49.10
24336;BME280;33098;52.400;16.880;2023-05-14T06:46:29;101202.21;;;17.51;49.16
24336;BME280;33098;52.400;16.880;2023-05-14T06:48:55;101196.27;;;17.55;49.05
24336;BME280;33098;52.400;16.880;2023-05-14T06:51:27;101193.15;;;17.58;48.85
24336;BME280;33098;52.400;16.880;2023-05-14T06:53:57;101194.61;;;17.59;48.84
24336;BME280;33098;52.400;16.880;2023-05-14T06:56:24;101186.02;;;17.67;48.86
24336;BME280;33098;52.400;16.880;2023-05-14T06:58:50;101187.77;;;17.78;48.88
24336;BME280;33098;52.400;16.880;2023-05-14T07:01:23;101182.88;;;17.90;48.83
24336;BME280;33098;52.400;16.880;2023-05-14T07:03:50;101182.84;;;18.00;48.60
24336;BME280;33098;52.400;16.880;2023-05-14T07:06:16;101173.89;;;18.10;48.62
24336;BME280;33098;52.400;16.880;2023-05-14T07:08:54;101172.30;;;18.21;48.47
24336;BME280;33098;52.400;16.880;2023-05-14T07:11:29;101169.64;;;18.28;48.35
24336;BME280;33098;52.400;16.880;2023-05-14T07:13:58;101172.73;;;18.29;48.02
24336;BME280;33098;52.400;16.880;2023-05-14T07:16:25;101165.96;;;18.29;48.18
24336;BME280;33098;52.400;16.880;2023-05-14T07:18:54;101165.02;;;18.29;47.99
24336;BME280;33098;52.400;16.880;2023-05-14T07:21:21;101160.80;;;18.32;47.86
24336;BME280;33098;52.400;16.880;2023-05-14T07:23:51;101159.44;;;18.34;47.78
24336;BME280;33098;52.400;16.880;2023-05-14T07:26:18;101159.79;;;18.33;47.43
24336;BME280;33098;52.400;16.880;2023-05-14T07:28:47;101157.19;;;18.32;47.25
24336;BME280;33098;52.400;16.880;2023-05-14T07:31:17;101152.94;;;18.35;47.09
24336;BME280;33098;52.400;16.880;2023-05-14T07:33:49;101148.61;;;18.40;47.04
24336;BME280;33098;52.400;16.880;2023-05-14T07:36:18;101150.55;;;18.42;46.90
24336;BME280;33098;52.400;16.880;2023-05-14T07:38:48;101146.30;;;18.43;46.93
24336;BME280;33098;52.400;16.880;2023-05-14T07:41:15;101142.73;;;18.45;46.81
24336;BME280;33098;52.400;16.880;2023-05-14T07:43:41;101142.93;;;18.47;46.66
24336;BME280;33098;52.400;16.880;2023-05-14T07:46:10;101143.78;;;18.53;46.38
24336;BME280;33098;52.400;16.880;2023-05-14T07:48:37;101139.92;;;18.57;46.26
24336;BME280;33098;52.400;16.880;2023-05-14T07:51:05;101138.49;;;18.66;46.28
24336;BME280;33098;52.400;16.880;2023-05-14T07:53:33;101140.61;;;18.75;46.04
24336;BME280;33098;52.400;16.880;2023-05-14T07:56:00;101135.63;;;18.84;46.06
24336;BME280;33098;52.400;16.880;2023-05-14T07:58:26;101138.55;;;18.94;45.94
24336;BME280;33098;52.400;16.880;2023-05-14T08:00:58;101136.77;;;18.99;45.84
24336;BME280;33098;52.400;16.880;2023-05-14T08:03:26;101142.24;;;19.07;45.73
24336;BME280;33098;52.400;16.880;2023-05-14T08:05:56;101135.48;;;19.18;45.51
24336;BME280;33098;52.400;16.880;2023-05-14T08:08:25;101129.56;;;19.32;45.40
24336;BME280;33098;52.400;16.880;2023-05-14T08:10:52;101128.73;;;19.43;45.00
24336;BME280;33098;52.400;16.880;2023-05-14T08:13:22;101124.67;;;19.54;44.82
24336;BME280;33098;52.400;16.880;2023-05-14T08:15:49;101124.46;;;19.61;44.74
24336;BME280;33098;52.400;16.880;2023-05-14T08:18:19;101124.21;;;19.72;44.85
24336;BME280;33098;52.400;16.880;2023-05-14T08:20:48;101119.45;;;19.82;44.57
24336;BME280;33098;52.400;16.880;2023-05-14T08:23:18;101120.27;;;19.96;44.49
24336;BME280;33098;52.400;16.880;2023-05-14T08:25:45;101120.18;;;20.09;44.27
24336;BME280;33098;52.400;16.880;2023-05-14T08:28:12;101119.95;;;20.17;43.92
24336;BME280;33098;52.400;16.880;2023-05-14T08:30:43;101115.05;;;20.21;43.86
24336;BME280;33098;52.400;16.880;2023-05-14T08:33:10;101115.84;;;20.27;43.81
24336;BME280;33098;52.400;16.880;2023-05-14T08:35:42;101114.09;;;20.33;43.62
24336;BME280;33098;52.400;16.880;2023-05-14T08:38:15;101111.52;;;20.39;43.42
24336;BME280;33098;52.400;16.880;2023-05-14T08:40:55;101106.55;;;20.46;43.48
24336;BME280;33098;52.400;16.880;2023-05-14T08:43:37;101109.21;;;20.56;43.26
24336;BME280;33098;52.400;16.880;2023-05-14T08:46:12;101113.23;;;20.66;43.11
24336;BME280;33098;52.400;16.880;2023-05-14T08:48:49;101109.08;;;20.78;42.83
24336;BME280;33098;52.400;16.880;2023-05-14T08:51:24;101109.14;;;20.82;42.36
24336;BME280;33098;52.400;16.880;2023-05-14T08:53:57;101103.70;;;20.77;42.34
24336;BME280;33098;52.400;16.880;2023-05-14T08:56:31;101102.20;;;20.68;42.08
24336;BME280;33098;52.400;16.880;2023-05-14T08:59:01;101097.83;;;20.65;42.31
24336;BME280;33098;52.400;16.880;2023-05-14T09:01:31;101095.27;;;20.65;42.28
24336;BME280;33098;52.400;16.880;2023-05-14T09:03:58;101099.64;;;20.60;42.01
24336;BME280;33098;52.400;16.880;2023-05-14T09:06:27;101099.71;;;20.57;42.15
24336;BME280;33098;52.400;16.880;2023-05-14T09:08:54;101095.41;;;20.64;42.08
24336;BME280;33098;52.400;16.880;2023-05-14T09:11:28;101094.79;;;20.71;42.11
24336;BME280;33098;52.400;16.880;2023-05-14T09:13:55;101098.34;;;20.85;42.06
24336;BME280;33098;52.400;16.880;2023-05-14T09:16:24;101096.94;;;21.02;42.10
24336;BME280;33098;52.400;16.880;2023-05-14T09:18:52;101098.36;;;21.10;41.83
24336;BME280;33098;52.400;16.880;2023-05-14T09:21:19;101093.95;;;21.16;41.77
24336;BME280;33098;52.400;16.880;2023-05-14T09:23:55;101093.25;;;21.20;41.25
24336;BME280;33098;52.400;16.880;2023-05-14T09:26:24;101095.36;;;21.27;41.10
24336;BME280;33098;52.400;16.880;2023-05-14T09:29:03;101094.06;;;21.40;40.94
24336;BME280;33098;52.400;16.880;2023-05-14T09:31:32;101088.36;;;21.51;40.60
24336;BME280;33098;52.400;16.880;2023-05-14T09:34:00;101087.00;;;21.63;40.70
24336;BME280;33098;52.400;16.880;2023-05-14T09:36:27;101081.42;;;21.77;40.45
24336;BME280;33098;52.400;16.880;2023-05-14T09:38:59;101081.90;;;21.87;40.14
24336;BME280;33098;52.400;16.880;2023-05-14T09:41:33;101084.23;;;21.93;39.89
24336;BME280;33098;52.400;16.880;2023-05-14T09:44:02;101083.42;;;22.01;39.71
24336;BME280;33098;52.400;16.880;2023-05-14T09:46:32;101077.77;;;22.13;39.50
24336;BME280;33098;52.400;16.880;2023-05-14T09:49:05;101074.42;;;22.21;39.33
24336;BME280;33098;52.400;16.880;2023-05-14T09:51:31;101072.75;;;22.31;39.19
24336;BME280;33098;52.400;16.880;2023-05-14T09:54:01;101069.50;;;22.34;38.62
24336;BME280;33098;52.400;16.880;2023-05-14T09:56:36;101065.60;;;22.30;38.09
24336;BME280;33098;52.400;16.880;2023-05-14T09:59:05;101064.09;;;22.29;38.37
24336;BME280;33098;52.400;16.880;2023-05-14T10:01:31;101057.43;;;22.30;38.09
24336;BME280;33098;52.400;16.880;2023-05-14T10:04:06;101054.28;;;22.29;37.99
24336;BME280;33098;52.400;16.880;2023-05-14T10:06:37;101049.03;;;22.29;38.30
24336;BME280;33098;52.400;16.880;2023-05-14T10:09:11;101046.84;;;22.39;38.16
24336;BME280;33098;52.400;16.880;2023-05-14T10:11:42;101042.67;;;22.48;38.19
24336;BME280;33098;52.400;16.880;2023-05-14T10:14:19;101030.29;;;22.54;37.84
24336;BME280;33098;52.400;16.880;2023-05-14T10:16:52;101026.23;;;22.51;37.41
24336;BME280;33098;52.400;16.880;2023-05-14T10:19:24;101020.92;;;22.49;37.87
24336;BME280;33098;52.400;16.880;2023-05-14T10:22:03;101015.25;;;22.58;38.06
24336;BME280;33098;52.400;16.880;2023-05-14T10:24:37;101014.11;;;22.73;37.68
24336;BME280;33098;52.400;16.880;2023-05-14T10:27:05;101008.83;;;22.87;37.47
24336;BME280;33098;52.400;16.880;2023-05-14T10:29:33;101005.45;;;23.03;37.43
24336;BME280;33098;52.400;16.880;2023-05-14T10:32:05;101003.33;;;23.19;36.96
24336;BME280;33098;52.400;16.880;2023-05-14T10:34:42;100992.86;;;23.35;36.92
24336;BME280;33098;52.400;16.880;2023-05-14T10:37:21;100988.33;;;23.50;36.54
24336;BME280;33098;52.400;16.880;2023-05-14T10:39:59;100983.85;;;23.56;36.16
24336;BME280;33098;52.400;16.880;2023-05-14T10:42:35;100985.75;;;23.59;36.12
24336;BME280;33098;52.400;16.880;2023-05-14T10:45:12;100981.23;;;23.60;36.02
24336;BME280;33098;52.400;16.880;2023-05-14T10:47:44;100983.73;;;23.66;36.01
24336;BME280;33098;52.400;16.880;2023-05-14T10:50:17;100976.23;;;23.80;36.13
24336;BME280;33098;52.400;16.880;2023-05-14T10:52:44;100970.91;;;23.93;35.88
24336;BME280;33098;52.400;16.880;2023-05-14T10:55:15;100963.70;;;24.09;35.65
24336;BME280;33098;52.400;16.880;2023-05-14T10:57:44;100963.91;;;24.20;35.60
24336;BME280;33098;52.400;16.880;2023-05-14T11:00:17;100954.98;;;24.28;35.57
24336;BME280;33098;52.400;16.880;2023-05-14T11:02:54;100949.08;;;24.39;35.58
24336;BME280;33098;52.400;16.880;2023-05-14T11:05:24;100954.75;;;24.47;35.44
24336;BME280;33098;52.400;16.880;2023-05-14T11:07:55;100943.92;;;24.48;35.24
24336;BME280;33098;52.400;16.880;2023-05-14T11:10:24;100940.48;;;24.48;35.06
24336;BME280;33098;52.400;16.880;2023-05-14T11:12:56;100937.31;;;24.46;35.10
24336;BME280;33098;52.400;16.880;2023-05-14T11:15:44;100936.59;;;24.47;35.07
24336;BME280;33098;52.400;16.880;2023-05-14T11:18:25;100934.83;;;24.47;34.90
24336;BME280;33098;52.400;16.880;2023-05-14T11:21:01;100927.48;;;24.43;34.69
24336;BME280;33098;52.400;16.880;2023-05-14T11:23:31;100921.94;;;24.51;34.76
24336;BME280;33098;52.400;16.880;2023-05-14T11:25:58;100917.31;;;24.66;34.48
24336;BME280;33098;52.400;16.880;2023-05-14T11:28:26;100912.94;;;24.81;34.58
24336;BME280;33098;52.400;16.880;2023-05-14T11:30:55;100909.65;;;25.01;34.47
24336;BME280;33098;52.400;16.880;2023-05-14T11:33:22;100905.08;;;25.21;34.20
24336;BME280;33098;52.400;16.880;2023-05-14T11:35:49;100905.88;;;25.36;34.12
24336;BME280;33098;52.400;16.880;2023-05-14T11:38:19;100907.83;;;25.40;33.57
24336;BME280;33098;52.400;16.880;2023-05-14T11:40:52;100905.56;;;25.33;33.51
24336;BME280;33098;52.400;16.880;2023-05-14T11:43:25;100903.17;;;25.34;33.46
24336;BME280;33098;52.400;16.880;2023-05-14T11:46:02;100898.17;;;25.26;33.31
24336;BME280;33098;52.400;16.880;2023-05-14T11:48:32;100899.42;;;25.17;33.20
24336;BME280;33098;52.400;16.880;2023-05-14T11:51:03;100897.30;;;25.02;33.36
24336;BME280;33098;52.400;16.880;2023-05-14T11:53:33;100891.45;;;24.82;33.33
24336;BME280;33098;52.400;16.880;2023-05-14T11:56:01;100890.83;;;24.63;33.45
24336;BME280;33098;52.400;16.880;2023-05-14T11:58:32;100888.05;;;24.44;33.35
24336;BME280;33098;52.400;16.880;2023-05-14T12:01:02;100886.52;;;24.29;33.51
24336;BME280;33098;52.400;16.880;2023-05-14T12:03:29;100885.67;;;24.13;33.55
24336;BME280;33098;52.400;16.880;2023-05-14T12:06:00;100884.95;;;23.99;33.65
24336;BME280;33098;52.400;16.880;2023-05-14T12:08:29;100885.63;;;23.87;33.72
24336;BME280;33098;52.400;16.880;2023-05-14T12:10:58;100884.10;;;23.78;33.97
24336;BME280;33098;52.400;16.880;2023-05-14T12:13:30;100877.30;;;23.67;33.96
24336;BME280;33098;52.400;16.880;2023-05-14T12:15:59;100878.87;;;23.56;34.11
24336;BME280;33098;52.400;16.880;2023-05-14T12:18:31;100874.79;;;23.40;34.03
24336;BME280;33098;52.400;16.880;2023-05-14T12:21:04;100871.41;;;23.22;34.18
24336;BME280;33098;52.400;16.880;2023-05-14T12:23:33;100873.46;;;23.08;34.32
24336;BME280;33098;52.400;16.880;2023-05-14T12:26:04;100871.33;;;23.03;34.44
24336;BME280;33098;52.400;16.880;2023-05-14T12:28:33;100862.02;;;22.99;34.50
24336;BME280;33098;52.400;16.880;2023-05-14T12:31:04;100855.48;;;22.89;34.71
24336;BME280;33098;52.400;16.880;2023-05-14T12:33:37;100853.23;;;22.90;34.80
24336;BME280;33098;52.400;16.880;2023-05-14T12:36:07;100848.31;;;22.99;34.93
24336;BME280;33098;52.400;16.880;2023-05-14T12:38:35;100846.42;;;23.14;35.11
24336;BME280;33098;52.400;16.880;2023-05-14T12:41:05;100846.77;;;23.26;34.89
24336;BME280;33098;52.400;16.880;2023-05-14T12:43:37;100843.85;;;23.27;34.79
24336;BME280;33098;52.400;16.880;2023-05-14T12:46:07;100842.66;;;23.34;34.61
24336;BME280;33098;52.400;16.880;2023-05-14T12:48:34;100841.13;;;23.48;34.56
24336;BME280;33098;52.400;16.880;2023-05-14T12:51:06;100834.70;;;23.86;34.63
24336;BME280;33098;52.400;16.880;2023-05-14T12:53:42;100828.20;;;24.11;34.17